sensor_id;sensor_type;location;lat;lon;timestamp;P1;durP1;ratioP1;P2;durP2;ratioP2
15878;SDS011;61999;51.514;14.614;2023-05-10T00:00:33;6.60;;;5.90;;
15878;SDS011;61999;51.514;14.614;2023-05-10T00:03:02;6.70;;;5.97;;
15878;SDS011;61999;51.514;14.614;2023-05-10T00:05:31;7.07;;;6.10;;
15878;SDS011;61999;51.514;14.614;2023-05-10T00:07:59;6.93;;;6.23;;
15878;SDS011;61999;51.514;14.614;2023-05-10T00:10:27;6.53;;;5.87;;
15878;SDS011;61999;51.514;14.614;2023-05-10T00:12:56;7.60;;;6.30;;
15878;SDS011;61999;51.514;14.614;2023-05-10T00:15:24;6.27;;;5.67;;
15878;SDS011;61999;51.514;14.614;2023-05-10T00:17:52;6.93;;;6.23;;
15878;SDS011;61999;51.514;14.614;2023-05-10T00:20:21;7.00;;;6.40;;
15878;SDS011;61999;51.514;14.614;2023-05-10T00:22:50;6.40;;;5.67;;
15878;SDS011;61999;51.514;14.614;2023-05-10T00:25:18;6.70;;;6.03;;
15878;SDS011;61999;51.514;14.614;2023-05-10T00:27:47;7.43;;;6.73;;
15878;SDS011;61999;51.514;14.614;2023-05-10T00:30:15;7.37;;;6.40;;
15878;SDS011;61999;51.514;14.614;2023-05-10T00:32:44;7.20;;;6.50;;
15878;SDS011;61999;51.514;14.614;2023-05-10T00:35:14;7.07;;;6.37;;
15878;SDS011;61999;51.514;14.614;2023-05-10T00:37:44;6.60;;;6.00;;
15878;SDS011;61999;51.514;14.614;2023-05-10T00:40:12;7.30;;;6.57;;
15878;SDS011;61999;51.514;14.614;2023-05-10T00:42:41;8.60;;;6.63;;
15878;SDS011;61999;51.514;14.614;2023-05-10T00:45:09;7.87;;;7.07;;
15878;SDS011;61999;51.514;14.614;2023-05-10T00:47:38;7.17;;;6.47;;
15878;SDS011;61999;51.514;14.614;2023-05-10T00:50:07;7.30;;;6.60;;
15878;SDS011;61999;51.514;14.614;2023-05-10T00:52:36;6.80;;;6.20;;
15878;SDS011;61999;51.514;14.614;2023-05-10T00:55:06;6.97;;;6.27;;
15878;SDS011;61999;51.514;14.614;2023-05-10T00:57:36;8.67;;;7.47;;
15878;SDS011;61999;51.514;14.614;2023-05-10T01:00:05;6.90;;;6.20;;
15878;SDS011;61999;51.514;14.614;2023-05-10T01:02:35;7.03;;;6.33;;
15878;SDS011;61999;51.514;14.614;2023-05-10T01:05:04;9.50;;;6.93;;
15878;SDS011;61999;51.514;14.614;2023-05-10T01:07:33;7.17;;;6.33;;
15878;SDS011;61999;51.514;14.614;2023-05-10T01:10:01;7.67;;;6.60;;
15878;SDS011;61999;51.514;14.614;2023-05-10T01:12:30;7.57;;;6.80;;
15878;SDS011;61999;51.514;14.614;2023-05-10T01:14:59;7.10;;;6.50;;
15878;SDS011;61999;51.514;14.614;2023-05-10T01:17:28;7.43;;;6.63;;
15878;SDS011;61999;51.514;14.614;2023-05-10T01:19:57;7.27;;;6.50;;
15878;SDS011;61999;51.514;14.614;2023-05-10T01:22:32;8.53;;;6.77;;
15878;SDS011;61999;51.514;14.614;2023-05-10T01:29:08;7.63;;;6.90;;
15878;SDS011;61999;51.514;14.614;2023-05-10T01:32:09;8.47;;;7.63;;
15878;SDS011;61999;51.514;14.614;2023-05-10T01:34:54;11.50;;;7.03;;
15878;SDS011;61999;51.514;14.614;2023-05-10T01:37:32;10.23;;;7.97;;
15878;SDS011;61999;51.514;14.614;2023-05-10T01:40:11;8.17;;;6.77;;
15878;SDS011;61999;51.514;14.614;2023-05-10T01:42:48;7.83;;;7.03;;
15878;SDS011;61999;51.514;14.614;2023-05-10T01:45:24;8.10;;;7.30;;
15878;SDS011;61999;51.514;14.614;2023-05-10T01:48:04;9.03;;;7.60;;
15878;SDS011;61999;51.514;14.614;2023-05-10T01:50:35;9.10;;;7.43;;
15878;SDS011;61999;51.514;14.614;2023-05-10T01:53:07;8.43;;;7.57;;
15878;SDS011;61999;51.514;14.614;2023-05-10T01:55:39;8.40;;;7.47;;
15878;SDS011;61999;51.514;14.614;2023-05-10T01:58:15;7.93;;;7.13;;
15878;SDS011;61999;51.514;14.614;2023-05-10T02:00:50;9.10;;;8.17;;
15878;SDS011;61999;51.514;14.614;2023-05-10T02:03:23;8.43;;;7.47;;
15878;SDS011;61999;51.514;14.614;2023-05-10T02:05:53;8.30;;;7.50;;
15878;SDS011;61999;51.514;14.614;2023-05-10T02:08:23;12.10;;;8.10;;
15878;SDS011;61999;51.514;14.614;2023-05-10T02:10:53;9.17;;;7.57;;
15878;SDS011;61999;51.514;14.614;2023-05-10T02:13:25;9.03;;;7.40;;
15878;SDS011;61999;51.514;14.614;2023-05-10T02:15:55;8.40;;;7.50;;
15878;SDS011;61999;51.514;14.614;2023-05-10T02:18:26;8.53;;;7.67;;
15878;SDS011;61999;51.514;14.614;2023-05-10T02:20:56;8.60;;;7.73;;
15878;SDS011;61999;51.514;14.614;2023-05-10T02:23:27;9.03;;;7.40;;
15878;SDS011;61999;51.514;14.614;2023-05-10T02:25:57;8.90;;;8.00;;
15878;SDS011;61999;51.514;14.614;2023-05-10T02:28:28;8.00;;;7.27;;
15878;SDS011;61999;51.514;14.614;2023-05-10T02:30:59;7.97;;;7.17;;
15878;SDS011;61999;51.514;14.614;2023-05-10T02:33:29;10.83;;;8.37;;
15878;SDS011;61999;51.514;14.614;2023-05-10T02:36:01;8.80;;;7.43;;
15878;SDS011;61999;51.514;14.614;2023-05-10T02:38:31;10.77;;;8.67;;
15878;SDS011;61999;51.514;14.614;2023-05-10T02:41:02;8.80;;;7.53;;
15878;SDS011;61999;51.514;14.614;2023-05-10T02:43:33;7.53;;;6.83;;
15878;SDS011;61999;51.514;14.614;2023-05-10T02:46:02;8.60;;;7.70;;
15878;SDS011;61999;51.514;14.614;2023-05-10T02:48:32;8.23;;;7.23;;
15878;SDS011;61999;51.514;14.614;2023-05-10T02:51:02;8.83;;;7.80;;
15878;SDS011;61999;51.514;14.614;2023-05-10T02:53:36;7.97;;;7.23;;
15878;SDS011;61999;51.514;14.614;2023-05-10T02:56:11;10.00;;;7.23;;
15878;SDS011;61999;51.514;14.614;2023-05-10T02:58:47;7.90;;;7.10;;
15878;SDS011;61999;51.514;14.614;2023-05-10T03:01:15;8.07;;;7.27;;
15878;SDS011;61999;51.514;14.614;2023-05-10T03:03:44;7.80;;;6.63;;
15878;SDS011;61999;51.514;14.614;2023-05-10T03:06:13;8.13;;;7.13;;
15878;SDS011;61999;51.514;14.614;2023-05-10T03:08:42;7.87;;;7.07;;
15878;SDS011;61999;51.514;14.614;2023-05-10T03:11:25;8.10;;;7.30;;
15878;SDS011;61999;51.514;14.614;2023-05-10T03:14:10;9.63;;;7.43;;
15878;SDS011;61999;51.514;14.614;2023-05-10T03:16:55;8.07;;;7.27;;
15878;SDS011;61999;51.514;14.614;2023-05-10T03:19:35;10.30;;;9.30;;
15878;SDS011;61999;51.514;14.614;2023-05-10T03:22:17;10.67;;;9.53;;
15878;SDS011;61999;51.514;14.614;2023-05-10T03:24:51;9.70;;;8.70;;
15878;SDS011;61999;51.514;14.614;2023-05-10T03:27:25;10.37;;;8.93;;
15878;SDS011;61999;51.514;14.614;2023-05-10T03:29:54;9.50;;;7.60;;
15878;SDS011;61999;51.514;14.614;2023-05-10T03:32:24;8.43;;;7.43;;
15878;SDS011;61999;51.514;14.614;2023-05-10T03:34:54;9.83;;;8.83;;
15878;SDS011;61999;51.514;14.614;2023-05-10T03:37:22;8.83;;;6.97;;
15878;SDS011;61999;51.514;14.614;2023-05-10T03:39:50;7.80;;;7.00;;
15878;SDS011;61999;51.514;14.614;2023-05-10T03:42:18;7.77;;;7.00;;
15878;SDS011;61999;51.514;14.614;2023-05-10T03:44:46;7.60;;;6.80;;
15878;SDS011;61999;51.514;14.614;2023-05-10T03:47:15;7.63;;;6.93;;
15878;SDS011;61999;51.514;14.614;2023-05-10T03:49:43;7.50;;;6.70;;
15878;SDS011;61999;51.514;14.614;2023-05-10T03:52:13;6.70;;;6.10;;
15878;SDS011;61999;51.514;14.614;2023-05-10T03:54:41;8.13;;;7.17;;
15878;SDS011;61999;51.514;14.614;2023-05-10T03:57:09;7.47;;;6.67;;
15878;SDS011;61999;51.514;14.614;2023-05-10T03:59:37;7.80;;;7.00;;
15878;SDS011;61999;51.514;14.614;2023-05-10T04:02:05;8.00;;;7.10;;
15878;SDS011;61999;51.514;14.614;2023-05-10T04:04:33;7.60;;;6.80;;
15878;SDS011;61999;51.514;14.614;2023-05-10T04:07:01;6.90;;;6.13;;
15878;SDS011;61999;51.514;14.614;2023-05-10T04:09:31;7.87;;;7.07;;
15878;SDS011;61999;51.514;14.614;2023-05-10T04:12:00;7.00;;;6.30;;
15878;SDS011;61999;51.514;14.614;2023-05-10T04:14:28;7.87;;;7.03;;
15878;SDS011;61999;51.514;14.614;2023-05-10T04:16:56;7.07;;;6.10;;
15878;SDS011;61999;51.514;14.614;2023-05-10T04:19:28;7.57;;;5.93;;
15878;SDS011;61999;51.514;14.614;2023-05-10T04:21:57;8.87;;;6.40;;
15878;SDS011;61999;51.514;14.614;2023-05-10T04:24:25;7.33;;;6.27;;
15878;SDS011;61999;51.514;14.614;2023-05-10T04:26:54;8.67;;;6.57;;
15878;SDS011;61999;51.514;14.614;2023-05-10T04:29:23;7.23;;;6.30;;
15878;SDS011;61999;51.514;14.614;2023-05-10T04:31:51;7.20;;;6.50;;
15878;SDS011;61999;51.514;14.614;2023-05-10T04:34:20;7.73;;;6.27;;
15878;SDS011;61999;51.514;14.614;2023-05-10T04:36:48;6.23;;;5.63;;
15878;SDS011;61999;51.514;14.614;2023-05-10T04:39:16;6.83;;;6.13;;
15878;SDS011;61999;51.514;14.614;2023-05-10T04:41:44;6.97;;;5.93;;
15878;SDS011;61999;51.514;14.614;2023-05-10T04:44:13;5.47;;;4.97;;
15878;SDS011;61999;51.514;14.614;2023-05-10T04:46:41;6.60;;;5.90;;
15878;SDS011;61999;51.514;14.614;2023-05-10T04:49:09;5.93;;;5.33;;
15878;SDS011;61999;51.514;14.614;2023-05-10T04:51:37;6.83;;;5.67;;
15878;SDS011;61999;51.514;14.614;2023-05-10T04:54:06;8.10;;;5.73;;
15878;SDS011;61999;51.514;14.614;2023-05-10T04:56:34;6.93;;;5.60;;
15878;SDS011;61999;51.514;14.614;2023-05-10T04:59:02;6.07;;;5.47;;
15878;SDS011;61999;51.514;14.614;2023-05-10T05:01:31;6.10;;;5.40;;
15878;SDS011;61999;51.514;14.614;2023-05-10T05:03:59;7.33;;;4.87;;
15878;SDS011;61999;51.514;14.614;2023-05-10T05:06:27;6.00;;;5.40;;
15878;SDS011;61999;51.514;14.614;2023-05-10T05:08:55;5.53;;;5.03;;
15878;SDS011;61999;51.514;14.614;2023-05-10T05:11:23;6.50;;;5.10;;
15878;SDS011;61999;51.514;14.614;2023-05-10T05:13:52;6.57;;;5.30;;
15878;SDS011;61999;51.514;14.614;2023-05-10T05:16:20;5.53;;;5.03;;
15878;SDS011;61999;51.514;14.614;2023-05-10T05:18:49;5.07;;;4.57;;
15878;SDS011;61999;51.514;14.614;2023-05-10T05:21:18;5.73;;;5.10;;
15878;SDS011;61999;51.514;14.614;2023-05-10T05:23:47;5.70;;;4.63;;
15878;SDS011;61999;51.514;14.614;2023-05-10T05:26:15;8.13;;;4.60;;
15878;SDS011;61999;51.514;14.614;2023-05-10T05:28:43;4.60;;;4.20;;
15878;SDS011;61999;51.514;14.614;2023-05-10T05:31:11;4.90;;;4.40;;
15878;SDS011;61999;51.514;14.614;2023-05-10T05:33:40;5.00;;;4.40;;
15878;SDS011;61999;51.514;14.614;2023-05-10T05:36:09;4.57;;;4.17;;
15878;SDS011;61999;51.514;14.614;2023-05-10T05:38:37;4.40;;;4.00;;
15878;SDS011;61999;51.514;14.614;2023-05-10T05:41:05;4.43;;;4.03;;
15878;SDS011;61999;51.514;14.614;2023-05-10T05:43:33;5.63;;;4.30;;
15878;SDS011;61999;51.514;14.614;2023-05-10T05:46:02;5.60;;;4.13;;
15878;SDS011;61999;51.514;14.614;2023-05-10T05:48:30;5.07;;;4.57;;
15878;SDS011;61999;51.514;14.614;2023-05-10T05:50:58;4.00;;;3.60;;
15878;SDS011;61999;51.514;14.614;2023-05-10T05:53:28;3.77;;;3.40;;
15878;SDS011;61999;51.514;14.614;2023-05-10T05:55:56;4.13;;;3.67;;
15878;SDS011;61999;51.514;14.614;2023-05-10T05:58:25;4.43;;;4.03;;
15878;SDS011;61999;51.514;14.614;2023-05-10T06:00:54;3.47;;;3.17;;
15878;SDS011;61999;51.514;14.614;2023-05-10T06:03:22;3.60;;;3.17;;
15878;SDS011;61999;51.514;14.614;2023-05-10T06:05:50;3.50;;;3.20;;
15878;SDS011;61999;51.514;14.614;2023-05-10T06:08:18;3.73;;;3.37;;
15878;SDS011;61999;51.514;14.614;2023-05-10T06:10:47;3.57;;;3.27;;
15878;SDS011;61999;51.514;14.614;2023-05-10T06:13:15;3.67;;;3.33;;
15878;SDS011;61999;51.514;14.614;2023-05-10T06:15:44;3.10;;;2.80;;
15878;SDS011;61999;51.514;14.614;2023-05-10T06:18:12;4.37;;;3.30;;
15878;SDS011;61999;51.514;14.614;2023-05-10T06:20:40;3.83;;;3.03;;
15878;SDS011;61999;51.514;14.614;2023-05-10T06:23:09;2.80;;;2.60;;
15878;SDS011;61999;51.514;14.614;2023-05-10T06:25:37;3.27;;;2.97;;
15878;SDS011;61999;51.514;14.614;2023-05-10T06:28:06;4.43;;;2.80;;
15878;SDS011;61999;51.514;14.614;2023-05-10T06:30:35;3.37;;;3.07;;
15878;SDS011;61999;51.514;14.614;2023-05-10T06:33:04;2.53;;;2.17;;
15878;SDS011;61999;51.514;14.614;2023-05-10T06:35:32;3.93;;;2.83;;
15878;SDS011;61999;51.514;14.614;2023-05-10T06:38:00;2.73;;;2.50;;
15878;SDS011;61999;51.514;14.614;2023-05-10T06:40:28;4.03;;;2.63;;
15878;SDS011;61999;51.514;14.614;2023-05-10T06:42:56;3.37;;;3.07;;
15878;SDS011;61999;51.514;14.614;2023-05-10T06:45:26;3.47;;;3.10;;
15878;SDS011;61999;51.514;14.614;2023-05-10T06:47:54;2.83;;;2.63;;
15878;SDS011;61999;51.514;14.614;2023-05-10T06:50:22;2.83;;;2.60;;
15878;SDS011;61999;51.514;14.614;2023-05-10T06:52:50;3.63;;;2.90;;
15878;SDS011;61999;51.514;14.614;2023-05-10T06:55:18;3.30;;;2.80;;
15878;SDS011;61999;51.514;14.614;2023-05-10T06:57:46;3.77;;;2.80;;
15878;SDS011;61999;51.514;14.614;2023-05-10T07:00:15;2.53;;;2.33;;
15878;SDS011;61999;51.514;14.614;2023-05-10T07:02:46;2.53;;;2.33;;
15878;SDS011;61999;51.514;14.614;2023-05-10T07:05:14;2.60;;;2.40;;
15878;SDS011;61999;51.514;14.614;2023-05-10T07:07:42;3.07;;;2.40;;
15878;SDS011;61999;51.514;14.614;2023-05-10T07:10:11;3.00;;;2.70;;
15878;SDS011;61999;51.514;14.614;2023-05-10T07:12:39;2.80;;;2.50;;
15878;SDS011;61999;51.514;14.614;2023-05-10T07:15:08;2.60;;;2.20;;
15878;SDS011;61999;51.514;14.614;2023-05-10T07:17:36;2.97;;;2.70;;
15878;SDS011;61999;51.514;14.614;2023-05-10T07:20:07;3.83;;;2.40;;
15878;SDS011;61999;51.514;14.614;2023-05-10T07:22:36;3.07;;;2.53;;
15878;SDS011;61999;51.514;14.614;2023-05-10T07:25:04;2.63;;;2.20;;
15878;SDS011;61999;51.514;14.614;2023-05-10T07:27:33;3.37;;;2.50;;
15878;SDS011;61999;51.514;14.614;2023-05-10T07:30:01;3.00;;;2.20;;
15878;SDS011;61999;51.514;14.614;2023-05-10T07:32:30;2.50;;;2.30;;
15878;SDS011;61999;51.514;14.614;2023-05-10T07:34:58;4.27;;;2.47;;
15878;SDS011;61999;51.514;14.614;2023-05-10T07:37:27;2.70;;;2.50;;
15878;SDS011;61999;51.514;14.614;2023-05-10T07:39:55;4.17;;;2.27;;
15878;SDS011;61999;51.514;14.614;2023-05-10T07:42:23;3.53;;;2.30;;
15878;SDS011;61999;51.514;14.614;2023-05-10T07:44:51;6.77;;;2.10;;
15878;SDS011;61999;51.514;14.614;2023-05-10T07:47:19;4.90;;;2.83;;
15878;SDS011;61999;51.514;14.614;2023-05-10T07:49:47;3.33;;;2.40;;
15878;SDS011;61999;51.514;14.614;2023-05-10T07:52:15;4.43;;;2.10;;
15878;SDS011;61999;51.514;14.614;2023-05-10T07:54:45;2.90;;;2.03;;
15878;SDS011;61999;51.514;14.614;2023-05-10T07:57:13;9.53;;;2.30;;
15878;SDS011;61999;51.514;14.614;2023-05-10T07:59:43;8.57;;;2.67;;
15878;SDS011;61999;51.514;14.614;2023-05-10T08:02:12;5.10;;;1.87;;
15878;SDS011;61999;51.514;14.614;2023-05-10T08:04:40;2.23;;;1.70;;
15878;SDS011;61999;51.514;14.614;2023-05-10T08:07:08;5.33;;;2.10;;
15878;SDS011;61999;51.514;14.614;2023-05-10T08:09:37;4.70;;;2.10;;
15878;SDS011;61999;51.514;14.614;2023-05-10T08:12:06;4.00;;;2.73;;
15878;SDS011;61999;51.514;14.614;2023-05-10T08:14:34;3.07;;;2.13;;
15878;SDS011;61999;51.514;14.614;2023-05-10T08:17:03;5.07;;;2.17;;
15878;SDS011;61999;51.514;14.614;2023-05-10T08:19:31;2.40;;;2.20;;
15878;SDS011;61999;51.514;14.614;2023-05-10T08:21:59;2.77;;;2.00;;
15878;SDS011;61999;51.514;14.614;2023-05-10T08:24:27;3.87;;;2.40;;
15878;SDS011;61999;51.514;14.614;2023-05-10T08:26:55;3.63;;;1.90;;
15878;SDS011;61999;51.514;14.614;2023-05-10T08:29:24;3.37;;;1.83;;
15878;SDS011;61999;51.514;14.614;2023-05-10T08:31:53;5.77;;;2.20;;
15878;SDS011;61999;51.514;14.614;2023-05-10T08:34:21;2.57;;;1.90;;
15878;SDS011;61999;51.514;14.614;2023-05-10T08:36:49;3.60;;;2.20;;
15878;SDS011;61999;51.514;14.614;2023-05-10T08:39:18;3.80;;;2.00;;
15878;SDS011;61999;51.514;14.614;2023-05-10T08:41:52;4.73;;;1.97;;
15878;SDS011;61999;51.514;14.614;2023-05-10T08:44:30;4.40;;;1.77;;
15878;SDS011;61999;51.514;14.614;2023-05-10T08:47:02;3.07;;;2.30;;
15878;SDS011;61999;51.514;14.614;2023-05-10T08:49:33;3.83;;;2.10;;
15878;SDS011;61999;51.514;14.614;2023-05-10T08:52:02;3.53;;;2.20;;
15878;SDS011;61999;51.514;14.614;2023-05-10T08:54:33;3.80;;;1.90;;
15878;SDS011;61999;51.514;14.614;2023-05-10T08:57:01;2.13;;;1.63;;
15878;SDS011;61999;51.514;14.614;2023-05-10T08:59:31;2.20;;;2.00;;
15878;SDS011;61999;51.514;14.614;2023-05-10T09:02:00;4.47;;;2.40;;
15878;SDS011;61999;51.514;14.614;2023-05-10T09:04:29;3.07;;;1.90;;
15878;SDS011;61999;51.514;14.614;2023-05-10T09:06:58;4.40;;;2.07;;
15878;SDS011;61999;51.514;14.614;2023-05-10T09:09:26;2.57;;;2.00;;
15878;SDS011;61999;51.514;14.614;2023-05-10T09:11:55;3.60;;;2.30;;
15878;SDS011;61999;51.514;14.614;2023-05-10T09:14:23;2.53;;;1.70;;
15878;SDS011;61999;51.514;14.614;2023-05-10T09:16:55;3.50;;;2.07;;
15878;SDS011;61999;51.514;14.614;2023-05-10T09:19:24;2.87;;;1.83;;
15878;SDS011;61999;51.514;14.614;2023-05-10T09:21:52;2.17;;;1.93;;
15878;SDS011;61999;51.514;14.614;2023-05-10T09:24:20;4.70;;;2.40;;
15878;SDS011;61999;51.514;14.614;2023-05-10T09:26:53;3.70;;;2.10;;
15878;SDS011;61999;51.514;14.614;2023-05-10T09:29:21;2.20;;;2.00;;
15878;SDS011;61999;51.514;14.614;2023-05-10T09:31:50;2.90;;;2.13;;
15878;SDS011;61999;51.514;14.614;2023-05-10T09:34:28;2.73;;;1.80;;
15878;SDS011;61999;51.514;14.614;2023-05-10T09:37:01;3.00;;;1.73;;
15878;SDS011;61999;51.514;14.614;2023-05-10T09:39:30;4.07;;;2.10;;
15878;SDS011;61999;51.514;14.614;2023-05-10T09:41:59;2.33;;;1.97;;
15878;SDS011;61999;51.514;14.614;2023-05-10T09:44:30;2.73;;;1.77;;
15878;SDS011;61999;51.514;14.614;2023-05-10T09:47:00;2.00;;;1.67;;
15878;SDS011;61999;51.514;14.614;2023-05-10T09:49:30;3.03;;;1.53;;
15878;SDS011;61999;51.514;14.614;2023-05-10T09:52:00;3.87;;;2.30;;
15878;SDS011;61999;51.514;14.614;2023-05-10T09:54:29;4.10;;;1.77;;
15878;SDS011;61999;51.514;14.614;2023-05-10T09:56:58;2.67;;;1.83;;
15878;SDS011;61999;51.514;14.614;2023-05-10T09:59:27;2.97;;;1.80;;
15878;SDS011;61999;51.514;14.614;2023-05-10T10:01:56;3.67;;;1.80;;
15878;SDS011;61999;51.514;14.614;2023-05-10T10:04:27;2.50;;;1.90;;
15878;SDS011;61999;51.514;14.614;2023-05-10T10:07:01;1.70;;;1.57;;
15878;SDS011;61999;51.514;14.614;2023-05-10T10:09:31;1.70;;;1.60;;
15878;SDS011;61999;51.514;14.614;2023-05-10T10:12:02;3.90;;;2.33;;
15878;SDS011;61999;51.514;14.614;2023-05-10T10:14:31;2.13;;;1.93;;
15878;SDS011;61999;51.514;14.614;2023-05-10T10:17:00;4.47;;;1.83;;
15878;SDS011;61999;51.514;14.614;2023-05-10T10:19:32;2.67;;;1.40;;
15878;SDS011;61999;51.514;14.614;2023-05-10T10:22:02;1.67;;;1.57;;
15878;SDS011;61999;51.514;14.614;2023-05-10T10:24:31;1.97;;;1.77;;
15878;SDS011;61999;51.514;14.614;2023-05-10T10:27:01;2.17;;;1.97;;
15878;SDS011;61999;51.514;14.614;2023-05-10T10:29:49;1.70;;;1.60;;
15878;SDS011;61999;51.514;14.614;2023-05-10T10:32:35;2.00;;;1.83;;
15878;SDS011;61999;51.514;14.614;2023-05-10T10:35:30;1.67;;;1.57;;
15878;SDS011;61999;51.514;14.614;2023-05-10T10:38:01;1.77;;;1.67;;
15878;SDS011;61999;51.514;14.614;2023-05-10T10:40:30;1.60;;;1.50;;
15878;SDS011;61999;51.514;14.614;2023-05-10T10:48:40;1.80;;;1.70;;
15878;SDS011;61999;51.514;14.614;2023-05-10T10:51:14;1.60;;;1.50;;
15878;SDS011;61999;51.514;14.614;2023-05-10T10:53:44;2.50;;;1.58;;
15878;SDS011;61999;51.514;14.614;2023-05-10T10:56:15;2.20;;;1.60;;
15878;SDS011;61999;51.514;14.614;2023-05-10T10:58:50;1.80;;;1.63;;
15878;SDS011;61999;51.514;14.614;2023-05-10T11:01:20;2.00;;;1.85;;
15878;SDS011;61999;51.514;14.614;2023-05-10T11:03:55;4.28;;;2.00;;
15878;SDS011;61999;51.514;14.614;2023-05-10T11:06:45;2.95;;;1.98;;
15878;SDS011;61999;51.514;14.614;2023-05-10T11:09:14;1.60;;;1.48;;
15878;SDS011;61999;51.514;14.614;2023-05-10T11:11:48;1.65;;;1.20;;
15878;SDS011;61999;51.514;14.614;2023-05-10T11:14:21;1.95;;;1.75;;
15878;SDS011;61999;51.514;14.614;2023-05-10T11:16:51;4.40;;;1.73;;
15878;SDS011;61999;51.514;14.614;2023-05-10T11:19:19;2.67;;;1.60;;
15878;SDS011;61999;51.514;14.614;2023-05-10T11:21:48;1.67;;;1.58;;
15878;SDS011;61999;51.514;14.614;2023-05-10T11:24:22;1.50;;;1.40;;
15878;SDS011;61999;51.514;14.614;2023-05-10T11:26:55;2.70;;;1.70;;
15878;SDS011;61999;51.514;14.614;2023-05-10T11:29:24;1.60;;;1.40;;
15878;SDS011;61999;51.514;14.614;2023-05-10T11:31:56;1.58;;;1.48;;
15878;SDS011;61999;51.514;14.614;2023-05-10T11:34:27;2.03;;;1.92;;
15878;SDS011;61999;51.514;14.614;2023-05-10T11:36:57;1.90;;;1.80;;
15878;SDS011;61999;51.514;14.614;2023-05-10T11:39:27;2.45;;;2.03;;
15878;SDS011;61999;51.514;14.614;2023-05-10T11:41:58;2.05;;;1.80;;
15878;SDS011;61999;51.514;14.614;2023-05-10T11:44:28;1.60;;;1.38;;
15878;SDS011;61999;51.514;14.614;2023-05-10T11:46:58;2.55;;;2.05;;
15878;SDS011;61999;51.514;14.614;2023-05-10T11:49:27;1.90;;;1.80;;
15878;SDS011;61999;51.514;14.614;2023-05-10T11:52:03;1.83;;;1.55;;
15878;SDS011;61999;51.514;14.614;2023-05-10T11:54:33;1.83;;;1.63;;
15878;SDS011;61999;51.514;14.614;2023-05-10T11:57:02;1.88;;;1.77;;
15878;SDS011;61999;51.514;14.614;2023-05-10T11:59:31;2.05;;;1.77;;
15878;SDS011;61999;51.514;14.614;2023-05-10T12:01:59;3.40;;;2.10;;
15878;SDS011;61999;51.514;14.614;2023-05-10T12:04:27;2.05;;;1.90;;
15878;SDS011;61999;51.514;14.614;2023-05-10T12:06:56;2.15;;;1.95;;
15878;SDS011;61999;51.514;14.614;2023-05-10T12:09:26;2.83;;;2.00;;
15878;SDS011;61999;51.514;14.614;2023-05-10T12:12:02;1.88;;;1.70;;
15878;SDS011;61999;51.514;14.614;2023-05-10T12:14:33;2.15;;;2.05;;
15878;SDS011;61999;51.514;14.614;2023-05-10T12:17:02;2.50;;;2.00;;
15878;SDS011;61999;51.514;14.614;2023-05-10T12:19:36;3.40;;;2.30;;
15878;SDS011;61999;51.514;14.614;2023-05-10T12:22:05;2.50;;;1.85;;
15878;SDS011;61999;51.514;14.614;2023-05-10T12:24:34;4.30;;;1.98;;
15878;SDS011;61999;51.514;14.614;2023-05-10T12:27:06;1.50;;;1.40;;
15878;SDS011;61999;51.514;14.614;2023-05-10T12:29:37;2.88;;;2.00;;
15878;SDS011;61999;51.514;14.614;2023-05-10T12:32:10;1.67;;;1.58;;
15878;SDS011;61999;51.514;14.614;2023-05-10T12:34:38;1.65;;;1.55;;
15878;SDS011;61999;51.514;14.614;2023-05-10T12:37:06;2.08;;;1.95;;
15878;SDS011;61999;51.514;14.614;2023-05-10T12:39:38;2.92;;;1.75;;
15878;SDS011;61999;51.514;14.614;2023-05-10T12:42:09;3.42;;;1.60;;
15878;SDS011;61999;51.514;14.614;2023-05-10T12:44:38;2.42;;;1.90;;
15878;SDS011;61999;51.514;14.614;2023-05-10T12:47:06;2.72;;;1.63;;
15878;SDS011;61999;51.514;14.614;2023-05-10T12:49:34;1.90;;;1.80;;
15878;SDS011;61999;51.514;14.614;2023-05-10T12:52:03;1.73;;;1.60;;
15878;SDS011;61999;51.514;14.614;2023-05-10T12:54:31;1.90;;;1.80;;
15878;SDS011;61999;51.514;14.614;2023-05-10T12:56:59;3.10;;;1.83;;
15878;SDS011;61999;51.514;14.614;2023-05-10T12:59:28;2.05;;;1.52;;
15878;SDS011;61999;51.514;14.614;2023-05-10T13:01:56;2.45;;;2.10;;
15878;SDS011;61999;51.514;14.614;2023-05-10T13:04:25;1.63;;;1.52;;
15878;SDS011;61999;51.514;14.614;2023-05-10T13:06:53;2.50;;;1.95;;
15878;SDS011;61999;51.514;14.614;2023-05-10T13:09:24;2.72;;;1.80;;
15878;SDS011;61999;51.514;14.614;2023-05-10T13:11:52;2.15;;;1.58;;
15878;SDS011;61999;51.514;14.614;2023-05-10T13:14:20;2.33;;;2.13;;
15878;SDS011;61999;51.514;14.614;2023-05-10T13:16:50;2.38;;;1.90;;
15878;SDS011;61999;51.514;14.614;2023-05-10T13:19:18;2.40;;;2.20;;
15878;SDS011;61999;51.514;14.614;2023-05-10T13:21:47;2.08;;;1.98;;
15878;SDS011;61999;51.514;14.614;2023-05-10T13:24:15;2.67;;;2.03;;
15878;SDS011;61999;51.514;14.614;2023-05-10T13:26:43;2.53;;;2.13;;
15878;SDS011;61999;51.514;14.614;2023-05-10T13:29:11;2.63;;;1.90;;
15878;SDS011;61999;51.514;14.614;2023-05-10T13:31:40;2.33;;;2.05;;
15878;SDS011;61999;51.514;14.614;2023-05-10T13:34:09;2.00;;;1.90;;
15878;SDS011;61999;51.514;14.614;2023-05-10T13:36:37;2.42;;;2.28;;
15878;SDS011;61999;51.514;14.614;2023-05-10T13:39:05;3.38;;;2.22;;
15878;SDS011;61999;51.514;14.614;2023-05-10T13:41:34;3.53;;;2.28;;
15878;SDS011;61999;51.514;14.614;2023-05-10T13:44:03;2.65;;;1.83;;
15878;SDS011;61999;51.514;14.614;2023-05-10T13:46:31;2.60;;;2.30;;
15878;SDS011;61999;51.514;14.614;2023-05-10T13:48:59;2.50;;;2.28;;
15878;SDS011;61999;51.514;14.614;2023-05-10T13:51:28;2.65;;;2.03;;
15878;SDS011;61999;51.514;14.614;2023-05-10T13:53:57;2.47;;;2.20;;
15878;SDS011;61999;51.514;14.614;2023-05-10T13:56:25;2.17;;;2.08;;
15878;SDS011;61999;51.514;14.614;2023-05-10T13:58:53;2.28;;;2.08;;
15878;SDS011;61999;51.514;14.614;2023-05-10T14:01:23;2.53;;;2.33;;
15878;SDS011;61999;51.514;14.614;2023-05-10T14:03:51;2.30;;;2.13;;
15878;SDS011;61999;51.514;14.614;2023-05-10T14:06:19;2.25;;;2.15;;
15878;SDS011;61999;51.514;14.614;2023-05-10T14:08:49;2.20;;;2.10;;
15878;SDS011;61999;51.514;14.614;2023-05-10T14:11:17;4.20;;;2.30;;
15878;SDS011;61999;51.514;14.614;2023-05-10T14:13:45;2.70;;;2.50;;
15878;SDS011;61999;51.514;14.614;2023-05-10T14:16:13;2.30;;;2.20;;
15878;SDS011;61999;51.514;14.614;2023-05-10T14:18:41;1.83;;;1.73;;
15878;SDS011;61999;51.514;14.614;2023-05-10T14:21:09;2.75;;;2.00;;
15878;SDS011;61999;51.514;14.614;2023-05-10T14:23:38;3.35;;;2.08;;
15878;SDS011;61999;51.514;14.614;2023-05-10T14:26:07;2.88;;;2.00;;
15878;SDS011;61999;51.514;14.614;2023-05-10T14:28:35;2.92;;;1.67;;
15878;SDS011;61999;51.514;14.614;2023-05-10T14:31:04;2.72;;;1.95;;
15878;SDS011;61999;51.514;14.614;2023-05-10T14:33:32;2.75;;;2.55;;
15878;SDS011;61999;51.514;14.614;2023-05-10T14:36:00;4.72;;;4.25;;
15878;SDS011;61999;51.514;14.614;2023-05-10T14:38:29;5.07;;;4.38;;
15878;SDS011;61999;51.514;14.614;2023-05-10T14:40:57;2.90;;;2.28;;
15878;SDS011;61999;51.514;14.614;2023-05-10T14:43:27;2.72;;;2.30;;
15878;SDS011;61999;51.514;14.614;2023-05-10T14:45:55;2.25;;;1.90;;
15878;SDS011;61999;51.514;14.614;2023-05-10T14:48:23;2.33;;;2.13;;
15878;SDS011;61999;51.514;14.614;2023-05-10T14:50:51;3.33;;;2.03;;
15878;SDS011;61999;51.514;14.614;2023-05-10T14:53:19;4.80;;;4.40;;
15878;SDS011;61999;51.514;14.614;2023-05-10T14:55:47;5.03;;;4.20;;
15878;SDS011;61999;51.514;14.614;2023-05-10T14:58:15;5.33;;;4.93;;